sensor_id;sensor_type;location;lat;lon;timestamp;temperature;humidity
43320;DHT22;28914;48.722;9.332;2023-04-03T00:01:01;9.00;66.70
43320;DHT22;28914;48.722;9.332;2023-04-03T00:06:22;8.90;66.70
43320;DHT22;28914;48.722;9.332;2023-04-03T00:11:41;8.70;66.90
43320;DHT22;28914;48.722;9.332;2023-04-03T00:17:00;8.60;66.80
43320;DHT22;28914;48.722;9.332;2023-04-03T00:22:20;8.50;67.10
43320;DHT22;28914;48.722;9.332;2023-04-03T00:27:39;8.40;68.10
43320;DHT22;28914;48.722;9.332;2023-04-03T00:32:59;8.30;67.50
43320;DHT22;28914;48.722;9.332;2023-04-03T00:38:19;8.30;67.80
43320;DHT22;28914;48.722;9.332;2023-04-03T00:43:38;8.20;67.80
43320;DHT22;28914;48.722;9.332;2023-04-03T00:48:58;8.10;68.00
43320;DHT22;28914;48.722;9.332;2023-04-03T00:54:17;8.10;68.00
43320;DHT22;28914;48.722;9.332;2023-04-03T00:59:41;8.00;68.20
43320;DHT22;28914;48.722;9.332;2023-04-03T01:05:03;8.00;68.50
43320;DHT22;28914;48.722;9.332;2023-04-03T01:10:23;8.00;68.70
43320;DHT22;28914;48.722;9.332;2023-04-03T01:15:44;8.00;68.90
43320;DHT22;28914;48.722;9.332;2023-04-03T01:21:30;8.00;69.00
43320;DHT22;28914;48.722;9.332;2023-04-03T01:26:50;8.00;68.70
43320;DHT22;28914;48.722;9.332;2023-04-03T01:32:10;8.00;68.70
43320;DHT22;28914;48.722;9.332;2023-04-03T01:37:29;8.00;68.50
43320;DHT22;28914;48.722;9.332;2023-04-03T01:42:49;8.00;68.50
43320;DHT22;28914;48.722;9.332;2023-04-03T01:48:08;8.00;68.50
43320;DHT22;28914;48.722;9.332;2023-04-03T01:53:27;8.10;68.50
43320;DHT22;28914;48.722;9.332;2023-04-03T01:58:46;8.10;68.30
43320;DHT22;28914;48.722;9.332;2023-04-03T02:04:06;8.00;68.40
43320;DHT22;28914;48.722;9.332;2023-04-03T02:09:25;8.00;68.60
43320;DHT22;28914;48.722;9.332;2023-04-03T02:14:45;8.00;68.70
43320;DHT22;28914;48.722;9.332;2023-04-03T02:20:05;8.10;68.80
43320;DHT22;28914;48.722;9.332;2023-04-03T02:25:24;8.10;68.70
43320;DHT22;28914;48.722;9.332;2023-04-03T02:30:43;8.10;68.70
43320;DHT22;28914;48.722;9.332;2023-04-03T02:36:04;8.10;68.70
43320;DHT22;28914;48.722;9.332;2023-04-03T02:41:24;8.10;68.90
43320;DHT22;28914;48.722;9.332;2023-04-03T02:46:46;8.10;68.70
43320;DHT22;28914;48.722;9.332;2023-04-03T02:52:05;8.10;68.60
43320;DHT22;28914;48.722;9.332;2023-04-03T02:57:25;8.10;67.70
43320;DHT22;28914;48.722;9.332;2023-04-03T03:02:44;8.10;67.80
43320;DHT22;28914;48.722;9.332;2023-04-03T03:08:03;8.10;67.90
43320;DHT22;28914;48.722;9.332;2023-04-03T03:13:22;8.10;67.90
43320;DHT22;28914;48.722;9.332;2023-04-03T03:18:42;8.10;67.90
43320;DHT22;28914;48.722;9.332;2023-04-03T03:24:01;8.10;67.50
43320;DHT22;28914;48.722;9.332;2023-04-03T03:29:20;8.10;67.50
43320;DHT22;28914;48.722;9.332;2023-04-03T03:34:39;8.10;67.30
43320;DHT22;28914;48.722;9.332;2023-04-03T03:39:58;8.10;67.00
43320;DHT22;28914;48.722;9.332;2023-04-03T03:45:18;8.10;67.00
43320;DHT22;28914;48.722;9.332;2023-04-03T03:50:37;8.10;66.80
43320;DHT22;28914;48.722;9.332;2023-04-03T03:55:56;8.10;66.40
43320;DHT22;28914;48.722;9.332;2023-04-03T04:01:15;8.10;66.50
43320;DHT22;28914;48.722;9.332;2023-04-03T04:06:36;8.10;66.70
43320;DHT22;28914;48.722;9.332;2023-04-03T04:11:55;8.10;66.60
43320;DHT22;28914;48.722;9.332;2023-04-03T04:17:14;8.20;66.30
43320;DHT22;28914;48.722;9.332;2023-04-03T04:22:33;8.10;65.90
43320;DHT22;28914;48.722;9.332;2023-04-03T04:27:52;8.10;65.70
43320;DHT22;28914;48.722;9.332;2023-04-03T04:33:11;8.10;65.90
43320;DHT22;28914;48.722;9.332;2023-04-03T04:38:32;8.10;65.60
43320;DHT22;28914;48.722;9.332;2023-04-03T04:43:52;8.20;65.90
43320;DHT22;28914;48.722;9.332;2023-04-03T04:49:12;8.20;65.80
43320;DHT22;28914;48.722;9.332;2023-04-03T04:54:31;8.20;65.70
43320;DHT22;28914;48.722;9.332;2023-04-03T04:59:50;8.20;65.40
43320;DHT22;28914;48.722;9.332;2023-04-03T05:05:09;8.20;66.40
43320;DHT22;28914;48.722;9.332;2023-04-03T05:10:29;8.20;65.50
43320;DHT22;28914;48.722;9.332;2023-04-03T05:15:48;8.20;65.30
43320;DHT22;28914;48.722;9.332;2023-04-03T05:21:07;8.30;65.30
43320;DHT22;28914;48.722;9.332;2023-04-03T05:26:27;8.30;65.40
43320;DHT22;28914;48.722;9.332;2023-04-03T05:31:46;8.40;65.50
43320;DHT22;28914;48.722;9.332;2023-04-03T05:37:06;8.40;65.30
43320;DHT22;28914;48.722;9.332;2023-04-03T05:42:26;8.40;65.00
43320;DHT22;28914;48.722;9.332;2023-04-03T05:47:45;8.40;64.90
43320;DHT22;28914;48.722;9.332;2023-04-03T05:53:04;8.30;65.40
43320;DHT22;28914;48.722;9.332;2023-04-03T05:58:23;8.20;64.20
43320;DHT22;28914;48.722;9.332;2023-04-03T06:03:42;8.20;64.20
43320;DHT22;28914;48.722;9.332;2023-04-03T06:09:02;8.20;64.50
43320;DHT22;28914;48.722;9.332;2023-04-03T06:14:21;8.20;64.30
43320;DHT22;28914;48.722;9.332;2023-04-03T06:19:40;8.30;65.50
43320;DHT22;28914;48.722;9.332;2023-04-03T06:24:59;8.40;64.50
43320;DHT22;28914;48.722;9.332;2023-04-03T06:30:18;8.60;64.60
43320;DHT22;28914;48.722;9.332;2023-04-03T06:35:38;8.70;63.80
43320;DHT22;28914;48.722;9.332;2023-04-03T06:40:57;8.80;63.70
43320;DHT22;28914;48.722;9.332;2023-04-03T06:46:21;9.00;63.40
43320;DHT22;28914;48.722;9.332;2023-04-03T06:51:40;9.00;62.90
43320;DHT22;28914;48.722;9.332;2023-04-03T06:57:00;9.00;62.40
43320;DHT22;28914;48.722;9.332;2023-04-03T07:02:19;9.10;62.70
43320;DHT22;28914;48.722;9.332;2023-04-03T07:07:39;9.20;62.20
43320;DHT22;28914;48.722;9.332;2023-04-03T07:12:59;9.30;62.10
43320;DHT22;28914;48.722;9.332;2023-04-03T07:18:19;9.50;62.60
43320;DHT22;28914;48.722;9.332;2023-04-03T07:23:38;9.60;62.50
43320;DHT22;28914;48.722;9.332;2023-04-03T07:28:58;9.80;62.00
43320;DHT22;28914;48.722;9.332;2023-04-03T07:34:17;9.90;61.10
43320;DHT22;28914;48.722;9.332;2023-04-03T07:39:36;10.10;61.90
43320;DHT22;28914;48.722;9.332;2023-04-03T07:44:56;10.30;62.10
43320;DHT22;28914;48.722;9.332;2023-04-03T07:50:15;10.60;61.70
43320;DHT22;28914;48.722;9.332;2023-04-03T07:55:35;10.90;61.70
43320;DHT22;28914;48.722;9.332;2023-04-03T08:01:01;11.30;60.00
43320;DHT22;28914;48.722;9.332;2023-04-03T08:06:20;11.60;59.70
43320;DHT22;28914;48.722;9.332;2023-04-03T08:11:39;11.90;59.90
43320;DHT22;28914;48.722;9.332;2023-04-03T08:16:59;12.50;59.80
43320;DHT22;28914;48.722;9.332;2023-04-03T08:22:18;12.90;58.80
43320;DHT22;28914;48.722;9.332;2023-04-03T08:27:37;13.20;58.20
43320;DHT22;28914;48.722;9.332;2023-04-03T08:32:56;13.50;57.50
43320;DHT22;28914;48.722;9.332;2023-04-03T08:38:15;13.80;57.80
43320;DHT22;28914;48.722;9.332;2023-04-03T08:43:45;14.20;56.50
43320;DHT22;28914;48.722;9.332;2023-04-03T08:49:18;14.70;55.60
43320;DHT22;28914;48.722;9.332;2023-04-03T08:55:00;15.10;55.80
43320;DHT22;28914;48.722;9.332;2023-04-03T09:00:23;15.70;54.60
43320;DHT22;28914;48.722;9.332;2023-04-03T09:11:21;16.60;53.90
43320;DHT22;28914;48.722;9.332;2023-04-03T09:16:54;17.10;52.80
43320;DHT22;28914;48.722;9.332;2023-04-03T09:22:21;17.20;51.70
43320;DHT22;28914;48.722;9.332;2023-04-03T09:27:41;17.00;48.00
43320;DHT22;28914;48.722;9.332;2023-04-03T09:33:00;16.50;47.90
43320;DHT22;28914;48.722;9.332;2023-04-03T09:38:21;16.00;48.30
43320;DHT22;28914;48.722;9.332;2023-04-03T09:43:52;15.80;50.10
43320;DHT22;28914;48.722;9.332;2023-04-03T09:49:12;15.70;49.70
43320;DHT22;28914;48.722;9.332;2023-04-03T09:54:37;15.60;50.20
43320;DHT22;28914;48.722;9.332;2023-04-03T09:59:58;15.60;50.10
43320;DHT22;28914;48.722;9.332;2023-04-03T10:05:38;15.50;47.30
43320;DHT22;28914;48.722;9.332;2023-04-03T10:11:15;15.20;49.50
43320;DHT22;28914;48.722;9.332;2023-04-03T10:22:46;15.10;50.20
43320;DHT22;28914;48.722;9.332;2023-04-03T10:34:18;14.40;49.60
43320;DHT22;28914;48.722;9.332;2023-04-03T10:40:15;14.10;50.50
43320;DHT22;28914;48.722;9.332;2023-04-03T10:45:51;13.80;50.50
43320;DHT22;28914;48.722;9.332;2023-04-03T10:57:02;13.10;50.90
43320;DHT22;28914;48.722;9.332;2023-04-03T11:02:25;12.80;50.70
43320;DHT22;28914;48.722;9.332;2023-04-03T11:07:48;12.60;51.10
43320;DHT22;28914;48.722;9.332;2023-04-03T11:13:38;12.40;50.70
43320;DHT22;28914;48.722;9.332;2023-04-03T11:19:10;12.20;50.70
43320;DHT22;28914;48.722;9.332;2023-04-03T11:24:34;12.10;51.70
43320;DHT22;28914;48.722;9.332;2023-04-03T11:29:54;12.10;52.50
43320;DHT22;28914;48.722;9.332;2023-04-03T11:35:14;12.30;52.40
43320;DHT22;28914;48.722;9.332;2023-04-03T11:40:35;12.40;51.30
43320;DHT22;28914;48.722;9.332;2023-04-03T11:46:05;12.50;51.30
43320;DHT22;28914;48.722;9.332;2023-04-03T11:56:47;12.50;51.20
43320;DHT22;28914;48.722;9.332;2023-04-03T12:02:36;12.40;50.20
43320;DHT22;28914;48.722;9.332;2023-04-03T12:24:35;12.90;51.40
43320;DHT22;28914;48.722;9.332;2023-04-03T12:30:05;13.30;51.00
43320;DHT22;28914;48.722;9.332;2023-04-03T12:35:47;13.60;49.00
43320;DHT22;28914;48.722;9.332;2023-04-03T12:41:43;13.70;48.00
43320;DHT22;28914;48.722;9.332;2023-04-03T12:47:31;13.70;46.70
43320;DHT22;28914;48.722;9.332;2023-04-03T12:52:59;13.60;47.20
43320;DHT22;28914;48.722;9.332;2023-04-03T12:58:22;13.70;48.10
43320;DHT22;28914;48.722;9.332;2023-04-03T13:03:45;13.80;46.70
43320;DHT22;28914;48.722;9.332;2023-04-03T13:09:06;13.90;47.20
43320;DHT22;28914;48.722;9.332;2023-04-03T13:14:27;14.00;47.40
43320;DHT22;28914;48.722;9.332;2023-04-03T13:19:47;14.00;46.10
43320;DHT22;28914;48.722;9.332;2023-04-03T13:25:09;13.70;45.90
43320;DHT22;28914;48.722;9.332;2023-04-03T13:30:35;13.60;46.90
43320;DHT22;28914;48.722;9.332;2023-04-03T13:36:19;13.60;47.70
43320;DHT22;28914;48.722;9.332;2023-04-03T13:41:42;13.60;47.80
43320;DHT22;28914;48.722;9.332;2023-04-03T13:52:33;13.70;47.20
43320;DHT22;28914;48.722;9.332;2023-04-03T13:58:16;13.60;46.40
43320;DHT22;28914;48.722;9.332;2023-04-03T14:03:43;13.60;46.10
43320;DHT22;28914;48.722;9.332;2023-04-03T14:09:03;13.60;46.70
43320;DHT22;28914;48.722;9.332;2023-04-03T14:14:31;13.60;47.30
43320;DHT22;28914;48.722;9.332;2023-04-03T14:19:52;13.70;46.70
43320;DHT22;28914;48.722;9.332;2023-04-03T14:25:12;13.70;45.80
43320;DHT22;28914;48.722;9.332;2023-04-03T14:30:33;13.50;45.10
43320;DHT22;28914;48.722;9.332;2023-04-03T14:35:52;13.40;45.90
43320;DHT22;28914;48.722;9.332;2023-04-03T14:41:16;13.30;45.40
43320;DHT22;28914;48.722;9.332;2023-04-03T14:46:38;13.30;46.00
43320;DHT22;28914;48.722;9.332;2023-04-03T14:51:58;13.30;46.20
43320;DHT22;28914;48.722;9.332;2023-04-03T14:57:17;13.20;46.70
43320;DHT22;28914;48.722;9.332;2023-04-03T15:02:37;13.20;46.20
43320;DHT22;28914;48.722;9.332;2023-04-03T15:07:58;13.10;45.90
43320;DHT22;28914;48.722;9.332;2023-04-03T15:13:19;13.00;46.00
43320;DHT22;28914;48.722;9.332;2023-04-03T15:18:39;12.80;45.90
43320;DHT22;28914;48.722;9.332;2023-04-03T15:23:58;12.80;46.30
43320;DHT22;28914;48.722;9.332;2023-04-03T15:29:17;12.60;46.20
43320;DHT22;28914;48.722;9.332;2023-04-03T15:34:37;12.30;46.20
43320;DHT22;28914;48.722;9.332;2023-04-03T15:39:56;12.10;46.60
43320;DHT22;28914;48.722;9.332;2023-04-03T15:45:16;12.00;47.20
43320;DHT22;28914;48.722;9.332;2023-04-03T15:50:35;12.00;47.50
43320;DHT22;28914;48.722;9.332;2023-04-03T15:55:55;12.00;47.40
43320;DHT22;28914;48.722;9.332;2023-04-03T16:01:14;12.00;46.50
43320;DHT22;28914;48.722;9.332;2023-04-03T16:06:34;12.00;46.40
43320;DHT22;28914;48.722;9.332;2023-04-03T16:11:53;11.80;46.40
43320;DHT22;28914;48.722;9.332;2023-04-03T16:17:12;11.60;45.90
43320;DHT22;28914;48.722;9.332;2023-04-03T16:22:31;11.50;46.40
43320;DHT22;28914;48.722;9.332;2023-04-03T16:27:51;11.50;46.60
43320;DHT22;28914;48.722;9.332;2023-04-03T16:33:11;11.50;47.20
43320;DHT22;28914;48.722;9.332;2023-04-03T16:38:30;11.50;46.50
43320;DHT22;28914;48.722;9.332;2023-04-03T16:43:50;11.40;46.80
43320;DHT22;28914;48.722;9.332;2023-04-03T16:49:09;11.40;47.10
43320;DHT22;28914;48.722;9.332;2023-04-03T16:54:29;11.40;47.20
43320;DHT22;28914;48.722;9.332;2023-04-03T16:59:50;11.40;46.60
43320;DHT22;28914;48.722;9.332;2023-04-03T17:05:09;11.40;46.90
43320;DHT22;28914;48.722;9.332;2023-04-03T17:10:28;11.30;47.20
43320;DHT22;28914;48.722;9.332;2023-04-03T17:15:48;11.30;47.70
43320;DHT22;28914;48.722;9.332;2023-04-03T17:21:07;11.20;47.30
43320;DHT22;28914;48.722;9.332;2023-04-03T17:26:27;11.20;47.90
43320;DHT22;28914;48.722;9.332;2023-04-03T17:31:46;11.10;48.00
43320;DHT22;28914;48.722;9.332;2023-04-03T17:37:05;11.10;48.10
43320;DHT22;28914;48.722;9.332;2023-04-03T17:42:24;11.00;48.10
43320;DHT22;28914;48.722;9.332;2023-04-03T17:47:44;11.00;48.30
43320;DHT22;28914;48.722;9.332;2023-04-03T17:53:04;10.90;48.30
43320;DHT22;28914;48.722;9.332;2023-04-03T17:58:23;10.80;48.30
43320;DHT22;28914;48.722;9.332;2023-04-03T18:03:43;10.60;48.50
43320;DHT22;28914;48.722;9.332;2023-04-03T18:09:32;10.50;48.70
43320;DHT22;28914;48.722;9.332;2023-04-03T18:14:51;10.40;49.00
43320;DHT22;28914;48.722;9.332;2023-04-03T18:20:11;10.20;49.00
43320;DHT22;28914;48.722;9.332;2023-04-03T18:25:32;10.10;49.20
43320;DHT22;28914;48.722;9.332;2023-04-03T18:30:51;10.00;49.40
43320;DHT22;28914;48.722;9.332;2023-04-03T18:36:10;10.00;49.50
43320;DHT22;28914;48.722;9.332;2023-04-03T18:41:32;9.90;49.70
43320;DHT22;28914;48.722;9.332;2023-04-03T18:46:52;9.80;49.70
43320;DHT22;28914;48.722;9.332;2023-04-03T18:52:12;9.70;49.80
43320;DHT22;28914;48.722;9.332;2023-04-03T18:57:31;9.60;49.90
43320;DHT22;28914;48.722;9.332;2023-04-03T19:02:50;9.40;49.90
43320;DHT22;28914;48.722;9.332;2023-04-03T19:08:10;9.40;50.20
43320;DHT22;28914;48.722;9.332;2023-04-03T19:13:29;9.30;50.40
43320;DHT22;28914;48.722;9.332;2023-04-03T19:18:50;9.30;50.70
43320;DHT22;28914;48.722;9.332;2023-04-03T19:24:11;9.30;50.60
43320;DHT22;28914;48.722;9.332;2023-04-03T19:29:30;9.30;50.60
43320;DHT22;28914;48.722;9.332;2023-04-03T19:34:49;9.20;50.60
43320;DHT22;28914;48.722;9.332;2023-04-03T19:40:09;9.20;50.70
43320;DHT22;28914;48.722;9.332;2023-04-03T19:45:28;9.10;50.50
43320;DHT22;28914;48.722;9.332;2023-04-03T19:50:48;9.00;50.60
43320;DHT22;28914;48.722;9.332;2023-04-03T19:56:07;8.90;50.50
43320;DHT22;28914;48.722;9.332;2023-04-03T20:01:26;8.90;50.70
43320;DHT22;28914;48.722;9.332;2023-04-03T20:06:48;8.80;50.70
43320;DHT22;28914;48.722;9.332;2023-04-03T20:12:08;8.70;50.50
43320;DHT22;28914;48.722;9.332;2023-04-03T20:17:28;8.50;50.50
43320;DHT22;28914;48.722;9.332;2023-04-03T20:22:47;8.40;50.60
43320;DHT22;28914;48.722;9.332;2023-04-03T20:28:06;8.30;51.40
43320;DHT22;28914;48.722;9.332;2023-04-03T20:33:27;8.10;50.90
43320;DHT22;28914;48.722;9.332;2023-04-03T20:38:47;8.00;50.90
43320;DHT22;28914;48.722;9.332;2023-04-03T20:44:07;7.80;50.90
43320;DHT22;28914;48.722;9.332;2023-04-03T20:49:26;7.70;51.10
43320;DHT22;28914;48.722;9.332;2023-04-03T20:54:45;7.60;51.30
43320;DHT22;28914;48.722;9.332;2023-04-03T21:00:05;7.50;51.40
43320;DHT22;28914;48.722;9.332;2023-04-03T21:05:25;7.40;51.60
43320;DHT22;28914;48.722;9.332;2023-04-03T21:22:04;7.10;52.20
43320;DHT22;28914;48.722;9.332;2023-04-03T21:27:24;7.00;52.20
43320;DHT22;28914;48.722;9.332;2023-04-03T21:32:43;6.90;52.40
43320;DHT22;28914;48.722;9.332;2023-04-03T21:38:02;6.80;52.50
43320;DHT22;28914;48.722;9.332;2023-04-03T21:43:21;6.70;52.60
43320;DHT22;28914;48.722;9.332;2023-04-03T21:48:41;6.60;52.90
43320;DHT22;28914;48.722;9.332;2023-04-03T21:54:00;6.50;53.00
43320;DHT22;28914;48.722;9.332;2023-04-03T21:59:19;6.40;53.20
43320;DHT22;28914;48.722;9.332;2023-04-03T22:04:38;6.30;53.20
43320;DHT22;28914;48.722;9.332;2023-04-03T22:09:58;6.20;53.40
43320;DHT22;28914;48.722;9.332;2023-04-03T22:15:17;6.20;53.50
43320;DHT22;28914;48.722;9.332;2023-04-03T22:20:36;6.10;53.70
43320;DHT22;28914;48.722;9.332;2023-04-03T22:26:03;6.00;53.80
43320;DHT22;28914;48.722;9.332;2023-04-03T22:31:22;6.00;54.00
43320;DHT22;28914;48.722;9.332;2023-04-03T22:36:41;5.90;54.10
43320;DHT22;28914;48.722;9.332;2023-04-03T22:42:01;5.80;54.50
43320;DHT22;28914;48.722;9.332;2023-04-03T22:47:20;5.70;54.50
43320;DHT22;28914;48.722;9.332;2023-04-03T22:52:39;5.70;54.80
43320;DHT22;28914;48.722;9.332;2023-04-03T22:57:58;5.60;55.00
43320;DHT22;28914;48.722;9.332;2023-04-03T23:03:17;5.60;55.20
43320;DHT22;28914;48.722;9.332;2023-04-03T23:08:37;5.50;55.20
43320;DHT22;28914;48.722;9.332;2023-04-03T23:13:56;5.50;55.30
43320;DHT22;28914;48.722;9.332;2023-04-03T23:19:17;5.40;55.50
43320;DHT22;28914;48.722;9.332;2023-04-03T23:24:37;5.30;56.20
43320;DHT22;28914;48.722;9.332;2023-04-03T23:29:59;5.20;56.10
43320;DHT22;28914;48.722;9.332;2023-04-03T23:35:19;5.20;56.10
43320;DHT22;28914;48.722;9.332;2023-04-03T23:40:40;5.10;56.40
43320;DHT22;28914;48.722;9.332;2023-04-03T23:45:59;5.00;56.60
43320;DHT22;28914;48.722;9.332;2023-04-03T23:51:18;5.00;56.70
43320;DHT22;28914;48.722;9.332;2023-04-03T23:56:38;4.90;56.70
